createdAt,value
2019-04-26T00:02:32.103Z,99447.41
2019-04-26T00:07:34.255Z,99450.63
2019-04-26T00:12:46.610Z,99447.69
2019-04-26T00:17:52.347Z,99440.01
2019-04-26T00:22:56.587Z,99436.81
2019-04-26T00:27:58.633Z,99436.16
2019-04-26T00:33:00.673Z,99437.05
2019-04-26T00:38:02.775Z,99432.50
2019-04-26T00:43:05.098Z,99435.89
2019-04-26T00:48:10.422Z,99438.48
2019-04-26T00:53:14.969Z,99432.47
2019-04-26T00:58:20.352Z,99430.97
2019-04-26T01:03:22.834Z,99427.02
2019-04-26T01:08:25.478Z,99420.09
2019-04-26T01:13:27.737Z,99416.67
2019-04-26T01:18:30.081Z,99408.29
2019-04-26T01:23:35.778Z,99414.56
2019-04-26T01:28:45.601Z,99415.96
2019-04-26T01:33:48.447Z,99416.56
2019-04-26T01:38:54.097Z,99417.29
2019-04-26T01:44:22.740Z,99411.81
2019-04-26T01:49:26.197Z,99409.89
2019-04-26T01:54:35.049Z,99412.13
2019-04-26T01:59:41.884Z,99414.36
2019-04-26T02:04:47.241Z,99420.61
2019-04-26T02:09:49.324Z,99409.90
2019-04-26T02:14:51.389Z,99407.89
2019-04-26T02:19:54.900Z,99398.00
2019-04-26T02:24:57.125Z,99405.73
2019-04-26T02:29:59.891Z,99410.53
2019-04-26T02:35:02.442Z,99412.98
2019-04-26T02:40:08.704Z,99398.98
2019-04-26T02:46:10.397Z,99398.87
2019-04-26T02:51:18.039Z,99392.05
2019-04-26T02:56:30.273Z,99404.78
2019-04-26T03:01:35.638Z,99398.34
2019-04-26T03:06:41.159Z,99420.75
2019-04-26T03:11:47.976Z,99415.67
2019-04-26T03:17:19.220Z,99416.67
2019-04-26T03:23:02.073Z,99424.41
2019-04-26T03:28:32.673Z,99418.25
2019-04-26T03:34:14.853Z,99421.66
2019-04-26T03:39:34.657Z,99418.11
2019-04-26T03:44:52.982Z,99404.05
2019-04-26T03:50:08.991Z,99417.66
2019-04-26T03:56:04.668Z,99422.24
2019-04-26T04:01:10.050Z,99431.13
2019-04-26T04:06:19.365Z,99435.28
2019-04-26T04:11:27.552Z,99435.07
2019-04-26T04:17:11.549Z,99443.16
2019-04-26T04:22:17.226Z,99449.86
2019-04-26T04:27:35.220Z,99451.14
2019-04-26T04:33:07.340Z,99470.13
2019-04-26T04:38:20.605Z,99467.09
2019-04-26T04:43:37.954Z,99468.41
2019-04-26T04:49:05.471Z,99474.86
2019-04-26T04:54:19.770Z,99479.17
2019-04-26T04:59:30.662Z,99488.38
2019-04-26T05:05:05.891Z,99496.02
2019-04-26T05:10:18.389Z,99495.27
2019-04-26T05:16:12.772Z,99521.91
2019-04-26T05:21:40.423Z,99532.22
2019-04-26T05:27:29.743Z,99545.94
2019-04-26T05:32:59.212Z,99560.66
2019-04-26T05:38:29.533Z,99578.27
2019-04-26T05:44:12.887Z,99592.88
2019-04-26T05:50:11.924Z,99602.34
2019-04-26T05:55:40.701Z,99596.07
2019-04-26T06:01:27.078Z,99595.85
2019-04-26T06:06:38.622Z,99612.61
2019-04-26T06:11:52.865Z,99607.63
2019-04-26T06:17:40.945Z,99616.56
2019-04-26T06:23:07.908Z,99601.20
2019-04-26T06:29:03.370Z,99586.39
2019-04-26T06:34:18.355Z,99585.29
2019-04-26T06:39:37.851Z,99596.13
2019-04-26T06:45:10.545Z,99608.59
2019-04-26T06:50:21.660Z,99611.19
2019-04-26T06:55:37.429Z,99617.47
2019-04-26T07:01:15.320Z,99611.81
2019-04-26T07:06:34.556Z,99622.09
2019-04-26T07:12:30.583Z,99608.31
2019-04-26T07:17:58.476Z,99609.52
2019-04-26T07:23:38.253Z,99597.64
2019-04-26T07:29:03.095Z,99601.76
2019-04-26T07:34:46.803Z,99601.76
2019-04-26T07:40:30.263Z,99607.61
2019-04-26T07:45:51.200Z,99623.23
2019-04-26T07:51:50.285Z,99624.39
2019-04-26T07:57:22.496Z,99622.08
2019-04-26T08:02:55.747Z,99624.67
2019-04-26T08:08:02.414Z,99629.81
2019-04-26T08:13:08.585Z,99621.95
2019-04-26T08:18:23.880Z,99606.16
2019-04-26T08:23:39.476Z,99598.11
2019-04-26T08:28:36.952Z,99599.18
2019-04-26T08:33:48.711Z,99599.11
2019-04-26T08:38:52.594Z,99601.91
2019-04-26T08:44:17.268Z,99597.30
2019-04-26T08:49:49.248Z,99597.31
2019-04-26T08:54:55.164Z,99603.52
2019-04-26T09:00:00.226Z,99606.27
2019-04-26T09:05:34.139Z,99616.27
2019-04-26T09:10:43.183Z,99624.89
2019-04-26T09:16:06.041Z,99622.26
2019-04-26T09:21:08.425Z,99638.93
2019-04-26T09:26:13.680Z,99645.35
2019-04-26T09:31:27.784Z,99636.02
2019-04-26T09:36:29.892Z,99642.17
2019-04-26T09:41:32.195Z,99646.83
2019-04-26T09:46:54.216Z,99638.16
2019-04-26T09:51:56.927Z,99633.61
2019-04-26T09:56:59.027Z,99633.71
2019-04-26T10:02:01.127Z,99632.20
2019-04-26T10:07:04.191Z,99629.80
2019-04-26T10:12:14.616Z,99631.31
2019-04-26T10:17:20.875Z,99634.06
2019-04-26T10:22:24.637Z,99632.70
2019-04-26T10:27:26.699Z,99640.53
2019-04-26T10:32:28.748Z,99629.70
2019-04-26T10:37:39.235Z,99635.27
2019-04-26T10:42:34.827Z,99640.50
2019-04-26T10:47:38.500Z,99640.88
2019-04-26T10:53:03.132Z,99649.61
2019-04-26T10:58:31.928Z,99654.78
2019-04-26T11:03:35.208Z,99662.54
2019-04-26T11:08:37.367Z,99650.70
2019-04-26T11:13:39.447Z,99652.98
2019-04-26T11:18:41.587Z,99654.52
2019-04-26T11:23:45.474Z,99655.84
2019-04-26T11:28:51.447Z,99655.95
2019-04-26T11:33:51.719Z,99663.39
2019-04-26T11:38:53.763Z,99668.06
2019-04-26T11:43:55.941Z,99658.85
2019-04-26T11:48:59.308Z,99649.02
2019-04-26T11:54:01.837Z,99650.70
2019-04-26T11:59:04.267Z,99663.23
2019-04-26T12:04:26.067Z,99665.48
2019-04-26T12:09:36.508Z,99678.06
2019-04-26T12:14:40.370Z,99662.77
2019-04-26T12:19:42.437Z,99659.72
2019-04-26T12:24:44.630Z,99651.86
2019-04-26T12:29:48.246Z,99655.70
2019-04-26T12:34:50.789Z,99655.14
2019-04-26T12:39:53.286Z,99656.77
2019-04-26T12:45:12.174Z,99659.30
2019-04-26T12:50:15.726Z,99666.00
2019-04-26T12:55:18.447Z,99662.55
2019-04-26T13:00:26.144Z,99659.02
2019-04-26T13:05:28.319Z,99649.70
2019-04-26T13:10:50.058Z,99652.63
2019-04-26T13:16:14.674Z,99659.30
2019-04-26T13:21:16.949Z,99661.89
2019-04-26T13:26:20.751Z,99648.92
2019-04-26T13:31:22.820Z,99662.52
2019-04-26T13:36:25.238Z,99661.55
2019-04-26T13:41:28.032Z,99677.33
2019-04-26T13:46:41.794Z,99677.91
2019-04-26T13:51:44.241Z,99689.02
2019-04-26T13:56:46.352Z,99699.06
2019-04-26T14:01:48.459Z,99697.24
2019-04-26T14:06:50.517Z,99698.80
2019-04-26T14:11:52.635Z,99714.88
2019-04-26T14:16:55.841Z,99722.02
2019-04-26T14:21:58.704Z,99717.34
2019-04-26T14:27:04.128Z,99710.97
2019-04-26T14:32:06.289Z,99718.48
2019-04-26T14:37:11.135Z,99724.63
2019-04-26T14:42:12.281Z,99732.49
2019-04-26T14:47:17.738Z,99736.89
2019-04-26T14:52:18.385Z,99734.14
2019-04-26T14:57:26.640Z,99744.73
2019-04-26T15:02:48.553Z,99754.41
2019-04-26T15:07:53.568Z,99749.80
2019-04-26T15:13:05.834Z,99745.98
2019-04-26T15:17:59.657Z,99746.86
2019-04-26T15:23:03.210Z,99751.20
2019-04-26T15:28:06.814Z,99758.08
2019-04-26T15:33:12.872Z,99774.70
2019-04-26T15:38:13.331Z,99788.03
2019-04-26T15:43:23.813Z,99800.18
2019-04-26T15:48:32.236Z,99783.64
2019-04-26T15:53:34.414Z,99788.41
2019-04-26T15:58:38.110Z,99793.79
2019-04-26T16:03:40.844Z,99787.70
2019-04-26T16:08:44.640Z,99790.08
2019-04-26T16:13:54.242Z,99814.55
2019-04-26T16:18:55.545Z,99816.11
2019-04-26T16:23:55.362Z,99802.77
2019-04-26T16:29:18.393Z,99820.20
2019-04-26T16:34:23.399Z,99822.81
2019-04-26T16:39:32.345Z,99841.13
2019-04-26T16:44:31.479Z,99832.73
2019-04-26T16:49:40.809Z,99829.08
2019-04-26T16:54:37.658Z,99824.12
2019-04-26T16:59:47.482Z,99820.41
2019-04-26T17:04:44.074Z,99865.94
2019-04-26T17:10:03.161Z,99876.86
2019-04-26T17:14:53.436Z,99868.86
2019-04-26T17:19:55.573Z,99875.62
2019-04-26T17:25:29.706Z,99903.30
2019-04-26T17:30:34.511Z,99920.98
2019-04-26T17:35:36.710Z,99935.48
2019-04-26T17:40:41.821Z,99942.81
2019-04-26T17:45:44.329Z,99956.36
2019-04-26T17:50:46.390Z,99969.11
2019-04-26T17:55:53.027Z,99973.86
2019-04-26T18:00:56.400Z,99993.30
2019-04-26T18:05:57.716Z,99999.78
2019-04-26T18:11:00.879Z,100004.25
2019-04-26T18:16:03.679Z,100001.00
2019-04-26T18:21:36.847Z,100007.43
2019-04-26T18:26:39.038Z,100020.59
2019-04-26T18:31:41.354Z,100016.97
2019-04-26T18:36:43.429Z,100037.78
2019-04-26T18:41:45.490Z,100042.88
2019-04-26T18:47:05.944Z,100038.06
2019-04-26T18:52:08.922Z,100048.39
2019-04-26T18:57:15.611Z,100071.80
2019-04-26T19:02:18.651Z,100090.23
2019-04-26T19:07:31.509Z,100094.84
2019-04-26T19:12:26.964Z,100089.62
2019-04-26T19:17:51.505Z,100090.05
2019-04-26T19:23:00.944Z,100080.48
2019-04-26T19:28:08.151Z,100083.87
2019-04-26T19:33:16.592Z,100093.30
2019-04-26T19:38:16.146Z,100093.88
2019-04-26T19:43:30.232Z,100081.69
2019-04-26T19:48:37.824Z,100057.75
2019-04-26T19:53:47.290Z,100084.70
2019-04-26T19:58:57.478Z,100072.05
2019-04-26T20:03:55.449Z,100079.16
2019-04-26T20:08:57.767Z,100112.67
2019-04-26T20:14:01.428Z,100172.88
2019-04-26T20:19:04.013Z,100216.56
2019-04-26T20:24:06.087Z,100244.27
2019-04-26T20:29:10.173Z,100252.17
2019-04-26T20:34:14.409Z,100249.05
2019-04-26T20:39:20.935Z,100255.97
2019-04-26T20:44:23.832Z,100225.80
2019-04-26T20:49:24.870Z,100211.63
2019-04-26T20:54:27.174Z,100236.69
2019-04-26T20:59:29.340Z,100238.16
2019-04-26T21:04:37.923Z,100228.87
2019-04-26T21:09:36.426Z,100241.38
2019-04-26T21:14:44.580Z,100245.81
2019-04-26T21:19:43.391Z,100254.23
2019-04-26T21:24:50.637Z,100261.16
2019-04-26T21:30:09.983Z,100253.72
2019-04-26T21:35:14.257Z,100230.99
2019-04-26T21:40:31.095Z,100208.77
2019-04-26T21:45:34.020Z,100207.92
2019-04-26T21:50:38.956Z,100195.08
2019-04-26T21:55:40.209Z,100180.07
2019-04-26T22:01:03.026Z,100201.30
2019-04-26T22:06:06.431Z,100183.18
2019-04-26T22:11:08.524Z,100174.14
2019-04-26T22:16:33.944Z,100152.22
2019-04-26T22:21:36.084Z,100144.31
2019-04-26T22:26:44.453Z,100148.75
2019-04-26T22:31:42.618Z,100178.34
2019-04-26T22:36:44.740Z,100177.17
2019-04-26T22:41:46.870Z,100166.11
2019-04-26T22:47:06.898Z,100186.84
2019-04-26T22:52:11.116Z,100186.19
2019-04-26T22:57:16.224Z,100189.29
2019-04-26T23:02:26.262Z,100187.41
2019-04-26T23:07:26.143Z,100194.13
2019-04-26T23:12:53.949Z,100187.01
2019-04-26T23:18:21.474Z,100193.08
2019-04-26T23:23:23.769Z,100183.44
2019-04-26T23:28:27.741Z,100191.67
2019-04-26T23:33:29.964Z,100193.17
2019-04-26T23:38:34.507Z,100190.98
2019-04-26T23:43:35.990Z,100181.00
2019-04-26T23:48:38.058Z,100176.95
2019-04-26T23:53:40.166Z,100182.27
2019-04-26T23:58:44.169Z,100173.88
